UAE853 OMDB-OKKK
Flight info
| Callsign | UAE853 |
|---|---|
| Flight time | 1h 14m |
| Altitude | 37000 |
| Route | RIDAP M557 TUMAK M600 KUMBO A453 DEBTI |
| Aircraft | B77W/H-SDE1E2E3FGHIJ2J3J4J5M1RWXY/LB1D1 |
Departure
| Time | 2026-04-24 11:43 |
|---|---|
| Airport | Dubai International Airport (OMDB) |
Arrival
| Time | 2026-04-24 12:57 |
|---|---|
| Airport | Kuwait International Airport (OKKK) |
| Time | Latitude | Longitude | Altitude | Speed | Heading |
|---|---|---|---|---|---|
| 2026-04-24 11:15 | 25.24301 | 55.37443 | 26 ft | 0 kts | 211° |
| 2026-04-24 11:33 | 25.24302 | 55.37443 | 26 ft | 0 kts | 211° |
| 2026-04-24 11:33 | 25.24321 | 55.37456 | 27 ft | 4 kts | 211° |
| 2026-04-24 11:34 | 25.24344 | 55.37471 | 26 ft | 3 kts | 211° |
| 2026-04-24 11:34 | 25.24363 | 55.37483 | 30 ft | 3 kts | 198° |
| 2026-04-24 11:34 | 25.24387 | 55.37485 | 28 ft | 3 kts | 150° |
| 2026-04-24 11:34 | 25.24405 | 55.37467 | 31 ft | 3 kts | 122° |
| 2026-04-24 11:35 | 25.24418 | 55.37443 | 31 ft | 3 kts | 122° |
| 2026-04-24 11:35 | 25.24428 | 55.37425 | 30 ft | 0 kts | 122° |
| 2026-04-24 11:39 | 25.24427 | 55.37427 | 32 ft | 3 kts | 122° |
| 2026-04-24 11:40 | 25.24394 | 55.37481 | 28 ft | 10 kts | 121° |
| 2026-04-24 11:40 | 25.24353 | 55.37557 | 26 ft | 13 kts | 122° |
| 2026-04-24 11:40 | 25.24307 | 55.37638 | 29 ft | 13 kts | 121° |
| 2026-04-24 11:40 | 25.24266 | 55.37724 | 26 ft | 13 kts | 104° |
| 2026-04-24 11:41 | 25.24306 | 55.37803 | 26 ft | 13 kts | 34° |
| 2026-04-24 11:41 | 25.24330 | 55.37821 | 26 ft | 0 kts | 34° |
| 2026-04-24 11:41 | 25.24331 | 55.37821 | 26 ft | 0 kts | 34° |
| 2026-04-24 11:41 | 25.24356 | 55.37840 | 27 ft | 16 kts | 34° |
| 2026-04-24 11:42 | 25.24478 | 55.37931 | 30 ft | 22 kts | 34° |
| 2026-04-24 11:42 | 25.24600 | 55.38024 | 28 ft | 19 kts | 33° |
| 2026-04-24 11:42 | 25.24679 | 55.38078 | 29 ft | 13 kts | 31° |
| 2026-04-24 11:42 | 25.24769 | 55.38084 | 31 ft | 19 kts | 323° |
| 2026-04-24 11:43 | 25.24903 | 55.37851 | 31 ft | 69 kts | 301° |
| 2026-04-24 11:43 | 25.25273 | 55.37186 | 32 ft | 156 kts | 301° |
| 2026-04-24 11:43 | 25.25929 | 55.35997 | 324 ft | 208 kts | 302° |
| 2026-04-24 11:43 | 25.26634 | 55.34718 | 1774 ft | 185 kts | 303° |
| 2026-04-24 11:44 | 25.27298 | 55.33520 | 2643 ft | 189 kts | 303° |
| 2026-04-24 11:44 | 25.28038 | 55.32193 | 2928 ft | 219 kts | 302° |
| 2026-04-24 11:44 | 25.28896 | 55.30661 | 3235 ft | 250 kts | 302° |
| 2026-04-24 11:44 | 25.29851 | 55.28970 | 3821 ft | 267 kts | 303° |
| 2026-04-24 11:45 | 25.30919 | 55.27256 | 3991 ft | 274 kts | 305° |
| 2026-04-24 11:45 | 25.32031 | 55.25541 | 4065 ft | 275 kts | 306° |
| 2026-04-24 11:45 | 25.33142 | 55.23820 | 4831 ft | 275 kts | 305° |
| 2026-04-24 11:45 | 25.34246 | 55.22095 | 5849 ft | 275 kts | 305° |
| 2026-04-24 11:46 | 25.35333 | 55.20343 | 6727 ft | 276 kts | 298° |
| 2026-04-24 11:46 | 25.35852 | 55.18294 | 7446 ft | 281 kts | 270° |
| 2026-04-24 11:46 | 25.35781 | 55.16125 | 8274 ft | 284 kts | 267° |
| 2026-04-24 11:46 | 25.35696 | 55.13941 | 9162 ft | 285 kts | 268° |
| 2026-04-24 11:47 | 25.35611 | 55.11737 | 10016 ft | 289 kts | 268° |
| 2026-04-24 11:47 | 25.35528 | 55.09484 | 10664 ft | 302 kts | 267° |
| 2026-04-24 11:47 | 25.35438 | 55.07065 | 10892 ft | 329 kts | 267° |
| 2026-04-24 11:47 | 25.35338 | 55.04430 | 11109 ft | 356 kts | 267° |
| 2026-04-24 11:48 | 25.35233 | 55.01648 | 11710 ft | 368 kts | 267° |
| 2026-04-24 11:48 | 25.35128 | 54.98794 | 12562 ft | 375 kts | 267° |
| 2026-04-24 11:48 | 25.35022 | 54.95907 | 13531 ft | 377 kts | 267° |
| 2026-04-24 11:48 | 25.34915 | 54.92998 | 14474 ft | 380 kts | 267° |
| 2026-04-24 11:49 | 25.34980 | 54.90064 | 15279 ft | 385 kts | 279° |
| 2026-04-24 11:49 | 25.35739 | 54.87216 | 15903 ft | 391 kts | 288° |
| 2026-04-24 11:49 | 25.36641 | 54.84350 | 16636 ft | 397 kts | 287° |
| 2026-04-24 11:49 | 25.37515 | 54.81452 | 17514 ft | 399 kts | 287° |
| 2026-04-24 11:50 | 25.38369 | 54.78518 | 18354 ft | 402 kts | 286° |
| 2026-04-24 11:50 | 25.39206 | 54.75594 | 19155 ft | 405 kts | 286° |
| 2026-04-24 11:50 | 25.40059 | 54.72604 | 19896 ft | 410 kts | 286° |
| 2026-04-24 11:50 | 25.40924 | 54.69580 | 20575 ft | 415 kts | 286° |
| 2026-04-24 11:51 | 25.41807 | 54.66526 | 21259 ft | 419 kts | 286° |
| 2026-04-24 11:51 | 25.42700 | 54.63443 | 21938 ft | 423 kts | 286° |
| 2026-04-24 11:51 | 25.43601 | 54.60329 | 22585 ft | 427 kts | 286° |
| 2026-04-24 11:51 | 25.44510 | 54.57233 | 23203 ft | 431 kts | 286° |
| 2026-04-24 11:52 | 25.45445 | 54.54064 | 23789 ft | 435 kts | 286° |
| 2026-04-24 11:52 | 25.46387 | 54.50871 | 24364 ft | 439 kts | 286° |
| 2026-04-24 11:52 | 25.47335 | 54.47647 | 24899 ft | 443 kts | 286° |
| 2026-04-24 11:52 | 25.48291 | 54.44392 | 25452 ft | 446 kts | 286° |
| 2026-04-24 11:53 | 25.49250 | 54.41119 | 26009 ft | 449 kts | 286° |
| 2026-04-24 11:53 | 25.50215 | 54.37825 | 26559 ft | 451 kts | 286° |
| 2026-04-24 11:53 | 25.51184 | 54.34510 | 27069 ft | 454 kts | 286° |
| 2026-04-24 11:53 | 25.52157 | 54.31172 | 27582 ft | 457 kts | 286° |
| 2026-04-24 11:54 | 25.53137 | 54.27813 | 28072 ft | 460 kts | 286° |
| 2026-04-24 11:54 | 25.54124 | 54.24432 | 28552 ft | 462 kts | 285° |
| 2026-04-24 11:54 | 25.55120 | 54.21041 | 28995 ft | 465 kts | 286° |
| 2026-04-24 11:54 | 25.56132 | 54.17628 | 29403 ft | 468 kts | 286° |
| 2026-04-24 11:55 | 25.57150 | 54.14194 | 29771 ft | 471 kts | 285° |
| 2026-04-24 11:55 | 25.58171 | 54.10742 | 30181 ft | 472 kts | 285° |
| 2026-04-24 11:55 | 25.59191 | 54.07288 | 30727 ft | 470 kts | 286° |
| 2026-04-24 11:55 | 25.60187 | 54.03866 | 31365 ft | 465 kts | 285° |
| 2026-04-24 11:56 | 25.61155 | 54.00466 | 32018 ft | 460 kts | 285° |
| 2026-04-24 11:56 | 25.62107 | 53.97097 | 32646 ft | 456 kts | 285° |
| 2026-04-24 11:56 | 25.63048 | 53.93759 | 33226 ft | 452 kts | 285° |
| 2026-04-24 11:56 | 25.63981 | 53.90449 | 33767 ft | 449 kts | 286° |
| 2026-04-24 11:57 | 25.64910 | 53.87158 | 34272 ft | 446 kts | 286° |
| 2026-04-24 11:57 | 25.65831 | 53.83894 | 34756 ft | 443 kts | 286° |
| 2026-04-24 11:57 | 25.66737 | 53.80686 | 35190 ft | 441 kts | 286° |
| 2026-04-24 11:57 | 25.67651 | 53.77447 | 35609 ft | 439 kts | 286° |
| 2026-04-24 11:58 | 25.68572 | 53.74182 | 35911 ft | 439 kts | 286° |
| 2026-04-24 11:58 | 25.69473 | 53.70982 | 35868 ft | 441 kts | 286° |
| 2026-04-24 11:58 | 25.71293 | 53.64507 | 35881 ft | 437 kts | 286° |
| 2026-04-24 11:59 | 25.73089 | 53.58099 | 35874 ft | 434 kts | 286° |
| 2026-04-24 11:59 | 25.74879 | 53.51706 | 35870 ft | 434 kts | 286° |
| 2026-04-24 12:00 | 25.76678 | 53.45325 | 35882 ft | 433 kts | 286° |
| 2026-04-24 12:00 | 25.78486 | 53.38940 | 35881 ft | 434 kts | 286° |
| 2026-04-24 12:01 | 25.80290 | 53.32540 | 35881 ft | 435 kts | 286° |
| 2026-04-24 12:01 | 25.82089 | 53.26135 | 35882 ft | 435 kts | 286° |
| 2026-04-24 12:02 | 25.83899 | 53.19720 | 35881 ft | 435 kts | 287° |
| 2026-04-24 12:02 | 25.86228 | 53.13508 | 35881 ft | 437 kts | 292° |
| 2026-04-24 12:03 | 25.88757 | 53.07377 | 35889 ft | 437 kts | 292° |
| 2026-04-24 12:03 | 25.91265 | 53.01235 | 35890 ft | 437 kts | 292° |
| 2026-04-24 12:04 | 25.93759 | 52.95083 | 35887 ft | 436 kts | 292° |
| 2026-04-24 12:04 | 25.96245 | 52.88930 | 35889 ft | 436 kts | 292° |
| 2026-04-24 12:05 | 25.98725 | 52.82786 | 35889 ft | 436 kts | 292° |
| 2026-04-24 12:05 | 26.01204 | 52.76640 | 35897 ft | 435 kts | 292° |
| 2026-04-24 12:06 | 26.03781 | 52.70553 | 35896 ft | 436 kts | 294° |
| 2026-04-24 12:06 | 26.06545 | 52.64559 | 35900 ft | 435 kts | 294° |
| 2026-04-24 12:07 | 26.09267 | 52.58566 | 35897 ft | 434 kts | 294° |
| 2026-04-24 12:07 | 26.11966 | 52.52559 | 35899 ft | 433 kts | 294° |
| 2026-04-24 12:08 | 26.14680 | 52.46571 | 35898 ft | 433 kts | 294° |
| 2026-04-24 12:08 | 26.17375 | 52.40626 | 35899 ft | 433 kts | 294° |
| 2026-04-24 12:09 | 26.20087 | 52.34629 | 35899 ft | 434 kts | 294° |
| 2026-04-24 12:09 | 26.22785 | 52.28624 | 35890 ft | 433 kts | 293° |
| 2026-04-24 12:10 | 26.25401 | 52.22581 | 35888 ft | 433 kts | 293° |
| 2026-04-24 12:11 | 26.29310 | 52.13506 | 35884 ft | 433 kts | 293° |
| 2026-04-24 12:11 | 26.31921 | 52.07463 | 35884 ft | 433 kts | 293° |
| 2026-04-24 12:12 | 26.34511 | 52.01417 | 35901 ft | 432 kts | 293° |
| 2026-04-24 12:12 | 26.37088 | 51.95375 | 35906 ft | 431 kts | 292° |
| 2026-04-24 12:13 | 26.39267 | 51.89167 | 35916 ft | 430 kts | 288° |
| 2026-04-24 12:13 | 26.41337 | 51.82904 | 35909 ft | 430 kts | 288° |
| 2026-04-24 12:14 | 26.43451 | 51.76658 | 35906 ft | 431 kts | 288° |
| 2026-04-24 12:14 | 26.45570 | 51.70387 | 35902 ft | 435 kts | 288° |
| 2026-04-24 12:15 | 26.47734 | 51.64006 | 35916 ft | 444 kts | 288° |
| 2026-04-24 12:15 | 26.49894 | 51.57558 | 35910 ft | 443 kts | 288° |
| 2026-04-24 12:16 | 26.52016 | 51.51147 | 35897 ft | 443 kts | 288° |
| 2026-04-24 12:16 | 26.54148 | 51.44705 | 35898 ft | 442 kts | 288° |
| 2026-04-24 12:17 | 26.55930 | 51.39312 | 35899 ft | 441 kts | 287° |
| 2026-04-24 12:17 | 26.58049 | 51.32896 | 35898 ft | 440 kts | 287° |
| 2026-04-24 12:18 | 26.60162 | 51.26500 | 35899 ft | 438 kts | 287° |
| 2026-04-24 12:18 | 26.62263 | 51.20152 | 35896 ft | 438 kts | 287° |
| 2026-04-24 12:19 | 26.64368 | 51.13778 | 35899 ft | 437 kts | 287° |
| 2026-04-24 12:19 | 26.66470 | 51.07391 | 35898 ft | 437 kts | 287° |
| 2026-04-24 12:20 | 26.68568 | 51.01010 | 35900 ft | 437 kts | 287° |
| 2026-04-24 12:20 | 26.70636 | 50.94615 | 35891 ft | 437 kts | 287° |
| 2026-04-24 12:21 | 26.72688 | 50.88204 | 35891 ft | 438 kts | 286° |
| 2026-04-24 12:21 | 26.74739 | 50.81794 | 35887 ft | 438 kts | 286° |
| 2026-04-24 12:22 | 26.76788 | 50.75381 | 35889 ft | 438 kts | 286° |
| 2026-04-24 12:22 | 26.78837 | 50.68960 | 35890 ft | 438 kts | 286° |
| 2026-04-24 12:23 | 26.80913 | 50.62540 | 35891 ft | 439 kts | 287° |
| 2026-04-24 12:23 | 26.83102 | 50.56162 | 35881 ft | 439 kts | 287° |
| 2026-04-24 12:24 | 26.85284 | 50.49773 | 35882 ft | 439 kts | 287° |
| 2026-04-24 12:24 | 26.87598 | 50.43445 | 35870 ft | 441 kts | 292° |
| 2026-04-24 12:25 | 26.90701 | 50.37527 | 35881 ft | 444 kts | 297° |
| 2026-04-24 12:25 | 26.93977 | 50.31660 | 35881 ft | 444 kts | 297° |
| 2026-04-24 12:26 | 26.97220 | 50.25775 | 35886 ft | 443 kts | 297° |
| 2026-04-24 12:26 | 27.00444 | 50.19885 | 35890 ft | 443 kts | 296° |
| 2026-04-24 12:27 | 27.03673 | 50.13997 | 35889 ft | 443 kts | 297° |
| 2026-04-24 12:27 | 27.07405 | 50.08444 | 35879 ft | 449 kts | 305° |
| 2026-04-24 12:28 | 27.11491 | 50.03146 | 35882 ft | 449 kts | 305° |
| 2026-04-24 12:28 | 27.15569 | 49.97838 | 35864 ft | 448 kts | 304° |
| 2026-04-24 12:29 | 27.19623 | 49.92518 | 35878 ft | 448 kts | 304° |
| 2026-04-24 12:29 | 27.23663 | 49.87193 | 35883 ft | 448 kts | 304° |
| 2026-04-24 12:30 | 27.27704 | 49.81858 | 35890 ft | 448 kts | 304° |
| 2026-04-24 12:30 | 27.31713 | 49.76562 | 35890 ft | 448 kts | 304° |
| 2026-04-24 12:31 | 27.35744 | 49.71231 | 35897 ft | 448 kts | 304° |
| 2026-04-24 12:31 | 27.39769 | 49.65896 | 35898 ft | 447 kts | 303° |
| 2026-04-24 12:32 | 27.43790 | 49.60562 | 35899 ft | 447 kts | 303° |
| 2026-04-24 12:32 | 27.47883 | 49.55273 | 35896 ft | 450 kts | 307° |
| 2026-04-24 12:33 | 27.52659 | 49.50605 | 35907 ft | 458 kts | 314° |
| 2026-04-24 12:33 | 27.57667 | 49.46179 | 35906 ft | 458 kts | 314° |
| 2026-04-24 12:34 | 27.62662 | 49.41727 | 35846 ft | 459 kts | 314° |
| 2026-04-24 12:34 | 27.65196 | 49.39444 | 35054 ft | 469 kts | 314° |
| 2026-04-24 12:34 | 27.67725 | 49.37167 | 34583 ft | 464 kts | 314° |
| 2026-04-24 12:34 | 27.70236 | 49.34908 | 34005 ft | 459 kts | 314° |
| 2026-04-24 12:35 | 27.72720 | 49.32674 | 33462 ft | 454 kts | 314° |
| 2026-04-24 12:35 | 27.75176 | 49.30457 | 32927 ft | 450 kts | 314° |
| 2026-04-24 12:35 | 27.77609 | 49.28258 | 32386 ft | 446 kts | 314° |
| 2026-04-24 12:35 | 27.80020 | 49.26075 | 31858 ft | 442 kts | 314° |
| 2026-04-24 12:36 | 27.82413 | 49.23911 | 31299 ft | 439 kts | 314° |
| 2026-04-24 12:36 | 27.84790 | 49.21762 | 30776 ft | 435 kts | 314° |
| 2026-04-24 12:36 | 27.87170 | 49.19659 | 30241 ft | 434 kts | 317° |
| 2026-04-24 12:36 | 27.89697 | 49.17781 | 29716 ft | 436 kts | 322° |
| 2026-04-24 12:37 | 27.92321 | 49.16081 | 29177 ft | 434 kts | 323° |
| 2026-04-24 12:37 | 27.94940 | 49.14401 | 28653 ft | 431 kts | 323° |
| 2026-04-24 12:37 | 27.97532 | 49.12733 | 28128 ft | 428 kts | 323° |
| 2026-04-24 12:37 | 28.00103 | 49.11066 | 27609 ft | 424 kts | 323° |
| 2026-04-24 12:38 | 28.02620 | 49.09425 | 27102 ft | 422 kts | 323° |
| 2026-04-24 12:38 | 28.05150 | 49.07768 | 26599 ft | 419 kts | 323° |
| 2026-04-24 12:38 | 28.07660 | 49.06121 | 26095 ft | 415 kts | 323° |
| 2026-04-24 12:39 | 28.15084 | 49.01244 | 24577 ft | 408 kts | 323° |
| 2026-04-24 12:39 | 28.17530 | 48.99634 | 24093 ft | 405 kts | 323° |
| 2026-04-24 12:39 | 28.19964 | 48.98031 | 23602 ft | 403 kts | 323° |
| 2026-04-24 12:40 | 28.22377 | 48.96440 | 23122 ft | 401 kts | 323° |
| 2026-04-24 12:40 | 28.24780 | 48.94858 | 22641 ft | 399 kts | 323° |
| 2026-04-24 12:40 | 28.27173 | 48.93282 | 22152 ft | 397 kts | 323° |
| 2026-04-24 12:40 | 28.29556 | 48.91711 | 21673 ft | 395 kts | 323° |
| 2026-04-24 12:41 | 28.31917 | 48.90148 | 21195 ft | 392 kts | 324° |
| 2026-04-24 12:41 | 28.34260 | 48.88592 | 20721 ft | 390 kts | 324° |
| 2026-04-24 12:41 | 28.36595 | 48.87040 | 20246 ft | 388 kts | 324° |
| 2026-04-24 12:41 | 28.38918 | 48.85495 | 19773 ft | 386 kts | 324° |
| 2026-04-24 12:42 | 28.41230 | 48.83956 | 19297 ft | 384 kts | 324° |
| 2026-04-24 12:42 | 28.43494 | 48.82452 | 18796 ft | 365 kts | 324° |
| 2026-04-24 12:42 | 28.45644 | 48.81024 | 18382 ft | 356 kts | 324° |
| 2026-04-24 12:42 | 28.47776 | 48.79600 | 17953 ft | 355 kts | 324° |
| 2026-04-24 12:43 | 28.49899 | 48.78180 | 17517 ft | 354 kts | 324° |
| 2026-04-24 12:43 | 28.52019 | 48.76764 | 17077 ft | 354 kts | 324° |
| 2026-04-24 12:43 | 28.54251 | 48.75264 | 16631 ft | 387 kts | 324° |
| 2026-04-24 12:43 | 28.56525 | 48.73483 | 16130 ft | 407 kts | 317° |
| 2026-04-24 12:44 | 28.58622 | 48.71306 | 15689 ft | 396 kts | 310° |
| 2026-04-24 12:44 | 28.60334 | 48.69010 | 15175 ft | 371 kts | 303° |
| 2026-04-24 12:44 | 28.61877 | 48.66640 | 15021 ft | 375 kts | 303° |
| 2026-04-24 12:44 | 28.63444 | 48.64229 | 14937 ft | 381 kts | 303° |
| 2026-04-24 12:45 | 28.65028 | 48.61811 | 14936 ft | 385 kts | 303° |
| 2026-04-24 12:45 | 28.66683 | 48.59295 | 14949 ft | 409 kts | 304° |
| 2026-04-24 12:45 | 28.68406 | 48.56688 | 14993 ft | 401 kts | 304° |
| 2026-04-24 12:45 | 28.70016 | 48.54274 | 14523 ft | 367 kts | 304° |
| 2026-04-24 12:46 | 28.71494 | 48.52051 | 14028 ft | 340 kts | 303° |
| 2026-04-24 12:46 | 28.72901 | 48.49930 | 13406 ft | 339 kts | 303° |
| 2026-04-24 12:46 | 28.74317 | 48.47761 | 13197 ft | 339 kts | 303° |
| 2026-04-24 12:46 | 28.75673 | 48.45621 | 12987 ft | 327 kts | 302° |
| 2026-04-24 12:47 | 28.76949 | 48.43594 | 12817 ft | 301 kts | 302° |
| 2026-04-24 12:47 | 28.78130 | 48.41719 | 12387 ft | 283 kts | 302° |
| 2026-04-24 12:47 | 28.79255 | 48.39924 | 11796 ft | 274 kts | 302° |
| 2026-04-24 12:47 | 28.80357 | 48.38165 | 11074 ft | 271 kts | 302° |
| 2026-04-24 12:48 | 28.81447 | 48.36420 | 10304 ft | 270 kts | 302° |
| 2026-04-24 12:48 | 28.82530 | 48.34688 | 9547 ft | 267 kts | 303° |
| 2026-04-24 12:48 | 28.83609 | 48.32965 | 8847 ft | 263 kts | 304° |
| 2026-04-24 12:48 | 28.84634 | 48.31332 | 8525 ft | 245 kts | 304° |
| 2026-04-24 12:49 | 28.85581 | 48.29823 | 8195 ft | 229 kts | 304° |
| 2026-04-24 12:49 | 28.86475 | 48.28398 | 7915 ft | 212 kts | 304° |
| 2026-04-24 12:49 | 28.87370 | 48.27113 | 7450 ft | 205 kts | 310° |
| 2026-04-24 12:49 | 28.88316 | 48.25945 | 7333 ft | 206 kts | 311° |
| 2026-04-24 12:50 | 28.89429 | 48.24577 | 7087 ft | 264 kts | 311° |
| 2026-04-24 12:50 | 28.90684 | 48.23032 | 6705 ft | 259 kts | 311° |
| 2026-04-24 12:50 | 28.91856 | 48.21580 | 6415 ft | 239 kts | 312° |
| 2026-04-24 12:50 | 28.92942 | 48.20231 | 6078 ft | 223 kts | 312° |
| 2026-04-24 12:51 | 28.93954 | 48.18970 | 5786 ft | 208 kts | 311° |
| 2026-04-24 12:51 | 28.94888 | 48.17801 | 5539 ft | 190 kts | 312° |
| 2026-04-24 12:51 | 28.95743 | 48.16729 | 5273 ft | 175 kts | 312° |
| 2026-04-24 12:51 | 28.96567 | 48.15696 | 5162 ft | 197 kts | 312° |
| 2026-04-24 12:52 | 28.97652 | 48.14324 | 4886 ft | 258 kts | 312° |
| 2026-04-24 12:52 | 28.98826 | 48.12846 | 4556 ft | 247 kts | 312° |
| 2026-04-24 12:52 | 28.99984 | 48.11389 | 4216 ft | 251 kts | 312° |
| 2026-04-24 12:52 | 29.01165 | 48.09901 | 3891 ft | 255 kts | 312° |
| 2026-04-24 12:53 | 29.02354 | 48.08401 | 3773 ft | 254 kts | 313° |
| 2026-04-24 12:53 | 29.03503 | 48.06955 | 3544 ft | 235 kts | 313° |
| 2026-04-24 12:53 | 29.04547 | 48.05641 | 3384 ft | 217 kts | 313° |
| 2026-04-24 12:53 | 29.05537 | 48.04393 | 3103 ft | 209 kts | 313° |
| 2026-04-24 12:54 | 29.06535 | 48.03183 | 2839 ft | 208 kts | 321° |
| 2026-04-24 12:54 | 29.07736 | 48.02307 | 2571 ft | 205 kts | 330° |
| 2026-04-24 12:54 | 29.09020 | 48.01541 | 2343 ft | 211 kts | 334° |
| 2026-04-24 12:54 | 29.10306 | 48.00848 | 2082 ft | 202 kts | 335° |
| 2026-04-24 12:55 | 29.11531 | 48.00198 | 1804 ft | 187 kts | 335° |
| 2026-04-24 12:55 | 29.12663 | 47.99599 | 1538 ft | 173 kts | 334° |
| 2026-04-24 12:55 | 29.13727 | 47.99035 | 1229 ft | 161 kts | 335° |
| 2026-04-24 12:55 | 29.14694 | 47.98534 | 1044 ft | 147 kts | 335° |
| 2026-04-24 12:56 | 29.15607 | 47.98061 | 907 ft | 146 kts | 335° |
| 2026-04-24 12:56 | 29.16551 | 47.97585 | 804 ft | 150 kts | 336° |
| 2026-04-24 12:56 | 29.17489 | 47.97070 | 567 ft | 148 kts | 330° |
| 2026-04-24 12:56 | 29.18384 | 47.96537 | 365 ft | 144 kts | 334° |
| 2026-04-24 12:57 | 29.19300 | 47.96068 | 238 ft | 146 kts | 334° |
| 2026-04-24 12:57 | 29.20183 | 47.95591 | 182 ft | 129 kts | 335° |
| 2026-04-24 12:57 | 29.20832 | 47.95250 | 169 ft | 76 kts | 335° |
| 2026-04-24 12:57 | 29.21193 | 47.95074 | 165 ft | 41 kts | 348° |
| 2026-04-24 12:58 | 29.21395 | 47.95073 | 163 ft | 7 kts | 1° |
| 2026-04-24 12:58 | 29.21396 | 47.95073 | 163 ft | 0 kts | 1° |
| 2026-04-24 12:59 | 29.21401 | 47.95073 | 163 ft | 3 kts | 1° |
| 2026-04-24 12:59 | 29.21459 | 47.95075 | 163 ft | 15 kts | 0° |
| 2026-04-24 12:59 | 29.21565 | 47.95075 | 164 ft | 15 kts | 355° |
| 2026-04-24 12:59 | 29.21668 | 47.95044 | 164 ft | 15 kts | 338° |
| 2026-04-24 13:00 | 29.21767 | 47.94994 | 164 ft | 16 kts | 335° |
| 2026-04-24 13:00 | 29.21872 | 47.94945 | 165 ft | 16 kts | 341° |
| 2026-04-24 13:00 | 29.21966 | 47.94997 | 165 ft | 16 kts | 59° |
| 2026-04-24 13:00 | 29.22010 | 47.95117 | 165 ft | 16 kts | 68° |
| 2026-04-24 13:01 | 29.22056 | 47.95236 | 165 ft | 16 kts | 64° |
| 2026-04-24 13:01 | 29.22106 | 47.95352 | 165 ft | 16 kts | 64° |
| 2026-04-24 13:01 | 29.22155 | 47.95469 | 165 ft | 16 kts | 64° |
| 2026-04-24 13:01 | 29.22204 | 47.95587 | 165 ft | 16 kts | 64° |
| 2026-04-24 13:02 | 29.22254 | 47.95704 | 165 ft | 16 kts | 64° |
| 2026-04-24 13:02 | 29.22303 | 47.95821 | 165 ft | 16 kts | 64° |
| 2026-04-24 13:02 | 29.22353 | 47.95938 | 165 ft | 16 kts | 64° |
| 2026-04-24 13:02 | 29.22403 | 47.96060 | 165 ft | 17 kts | 65° |
| 2026-04-24 13:03 | 29.22454 | 47.96184 | 165 ft | 17 kts | 64° |
| 2026-04-24 13:03 | 29.22505 | 47.96307 | 165 ft | 17 kts | 64° |
| 2026-04-24 13:03 | 29.22557 | 47.96431 | 165 ft | 17 kts | 64° |
| 2026-04-24 13:03 | 29.22593 | 47.96518 | 165 ft | 0 kts | 64° |